createdAt,value
2023-01-15T00:01:34.724Z,11.98
2023-01-15T00:03:36.238Z,11.07
2023-01-15T00:05:38.136Z,11.38
2023-01-15T00:07:39.635Z,14.45
2023-01-15T00:09:41.177Z,13.23
2023-01-15T00:11:42.954Z,15.43
2023-01-15T00:13:45.612Z,10.65
2023-01-15T00:15:47.143Z,9.55
2023-01-15T00:17:48.651Z,9.50
2023-01-15T00:19:50.172Z,9.48
2023-01-15T00:21:53.917Z,8.75
2023-01-15T00:24:14.632Z,7.57
2023-01-15T00:26:39.677Z,7.25
2023-01-15T00:28:41.653Z,9.48
2023-01-15T00:30:43.387Z,7.95
2023-01-15T00:32:45.171Z,8.02
2023-01-15T00:34:46.642Z,7.32
2023-01-15T00:36:48.274Z,7.55
2023-01-15T00:38:49.809Z,7.00
2023-01-15T00:40:53.051Z,5.97
2023-01-15T00:42:54.869Z,5.80
2023-01-15T00:44:56.467Z,6.68
2023-01-15T00:46:58.009Z,6.30
2023-01-15T00:48:59.525Z,7.35
2023-01-15T00:51:01.144Z,7.40
2023-01-15T00:53:02.666Z,5.68
2023-01-15T00:55:04.680Z,6.90
2023-01-15T00:57:06.215Z,7.13
2023-01-15T00:59:07.816Z,6.15
2023-01-15T01:01:09.598Z,6.05
2023-01-15T01:03:11.335Z,6.70
2023-01-15T01:05:12.875Z,6.65
2023-01-15T01:07:14.416Z,5.22
2023-01-15T01:09:16.893Z,5.75
2023-01-15T01:11:21.013Z,6.35
2023-01-15T01:13:22.512Z,7.07
2023-01-15T01:15:25.844Z,6.15
2023-01-15T01:17:27.524Z,7.97
2023-01-15T01:19:29.099Z,6.72
2023-01-15T01:21:31.263Z,6.90
2023-01-15T01:23:32.837Z,8.23
2023-01-15T01:25:34.430Z,7.63
2023-01-15T01:27:36.616Z,7.05
2023-01-15T01:29:38.168Z,7.40
2023-01-15T01:31:39.871Z,8.35
2023-01-15T01:33:41.409Z,7.43
2023-01-15T01:35:50.491Z,7.30
2023-01-15T01:37:52.149Z,5.55
2023-01-15T01:39:53.710Z,7.47
2023-01-15T01:41:55.258Z,6.05
2023-01-15T01:44:00.516Z,6.75
2023-01-15T01:46:02.067Z,6.95
2023-01-15T01:48:07.045Z,6.28
2023-01-15T01:50:12.127Z,6.05
2023-01-15T01:52:17.734Z,5.97
2023-01-15T01:54:22.873Z,5.55
2023-01-15T01:56:24.808Z,6.07
2023-01-15T01:58:30.843Z,6.22
2023-01-15T02:00:33.842Z,5.45
2023-01-15T02:02:35.755Z,4.55
2023-01-15T02:04:37.715Z,5.45
2023-01-15T02:06:42.533Z,7.65
2023-01-15T02:08:44.275Z,7.07
2023-01-15T02:10:51.867Z,6.60
2023-01-15T02:13:16.333Z,6.00
2023-01-15T02:15:26.167Z,6.35
2023-01-15T02:18:02.234Z,6.00
2023-01-15T02:20:40.776Z,6.38
2023-01-15T02:22:59.891Z,6.90
2023-01-15T02:25:13.586Z,6.57
2023-01-15T02:27:18.143Z,6.13
2023-01-15T02:29:38.538Z,6.78
2023-01-15T02:31:48.077Z,6.30
2023-01-15T02:33:51.642Z,7.15
2023-01-15T02:36:01.097Z,6.03
2023-01-15T02:38:07.960Z,6.82
2023-01-15T02:40:11.897Z,7.15
2023-01-15T02:42:14.809Z,5.72
2023-01-15T02:44:20.335Z,6.45
2023-01-15T02:46:26.955Z,6.70
2023-01-15T02:48:32.961Z,6.65
2023-01-15T02:50:39.767Z,6.70
2023-01-15T02:52:49.443Z,5.88
2023-01-15T02:56:58.758Z,6.03
2023-01-15T02:59:06.558Z,7.65
2023-01-15T03:01:19.517Z,6.65
2023-01-15T03:03:34.671Z,5.45
2023-01-15T03:05:43.782Z,4.90
2023-01-15T03:07:50.110Z,4.32
2023-01-15T03:09:53.380Z,4.22
2023-01-15T03:12:07.393Z,3.47
2023-01-15T03:14:27.554Z,3.35
2023-01-15T03:16:40.529Z,2.42
2023-01-15T03:18:51.999Z,3.17
2023-01-15T03:20:59.402Z,2.75
2023-01-15T03:23:10.426Z,3.13
2023-01-15T03:25:21.071Z,2.90
2023-01-15T03:27:23.180Z,2.90
2023-01-15T03:29:28.043Z,2.90
2023-01-15T03:31:30.001Z,3.10
2023-01-15T03:33:31.645Z,2.58
2023-01-15T03:35:45.756Z,2.58
2023-01-15T03:37:47.319Z,3.63
2023-01-15T03:39:49.441Z,2.53
2023-01-15T03:42:02.291Z,3.05
2023-01-15T03:44:13.172Z,3.00
2023-01-15T03:46:37.594Z,3.38
2023-01-15T03:48:48.984Z,3.25
2023-01-15T03:50:56.439Z,3.35
2023-01-15T03:53:15.974Z,2.30
2023-01-15T03:55:19.830Z,2.20
2023-01-15T03:57:57.260Z,2.42
2023-01-15T04:00:02.753Z,2.65
2023-01-15T04:02:08.323Z,2.83
2023-01-15T04:04:11.697Z,2.05
2023-01-15T04:06:13.245Z,2.50
2023-01-15T04:08:17.856Z,2.40
2023-01-15T04:10:19.710Z,2.55
2023-01-15T04:12:21.275Z,2.47
2023-01-15T04:14:22.821Z,2.45
2023-01-15T04:16:30.465Z,2.47
2023-01-15T04:18:32.038Z,2.47
2023-01-15T04:20:33.569Z,2.17
2023-01-15T04:22:36.236Z,2.35
2023-01-15T04:24:38.640Z,2.00
2023-01-15T04:26:40.167Z,3.13
2023-01-15T04:28:42.087Z,1.85
2023-01-15T04:30:44.249Z,2.33
2023-01-15T04:32:49.146Z,2.20
2023-01-15T04:34:50.866Z,4.00
2023-01-15T04:36:52.584Z,3.75
2023-01-15T04:38:54.755Z,4.60
2023-01-15T04:41:19.037Z,4.22
2023-01-15T04:43:38.873Z,4.75
2023-01-15T04:47:41.880Z,5.93
2023-01-15T04:49:43.430Z,8.07
2023-01-15T04:51:45.834Z,7.13
2023-01-15T04:53:47.461Z,3.10
2023-01-15T04:55:49.066Z,10.07
2023-01-15T04:57:50.636Z,3.47
2023-01-15T04:59:52.145Z,2.83
2023-01-15T05:02:03.708Z,2.55
2023-01-15T05:04:07.489Z,2.80
2023-01-15T05:06:09.521Z,2.80
2023-01-15T05:08:11.164Z,2.08
2023-01-15T05:10:12.689Z,2.63
2023-01-15T05:12:14.232Z,2.50
2023-01-15T05:14:15.735Z,2.70
2023-01-15T05:16:20.596Z,2.45
2023-01-15T05:18:22.108Z,2.67
2023-01-15T05:20:23.674Z,2.35
2023-01-15T05:22:25.248Z,2.60
2023-01-15T05:24:26.762Z,2.40
2023-01-15T05:26:30.617Z,2.20
2023-01-15T05:28:32.188Z,2.70
2023-01-15T05:30:33.708Z,2.70
2023-01-15T05:32:35.281Z,2.60
2023-01-15T05:34:36.799Z,3.22
2023-01-15T05:36:38.386Z,2.60
2023-01-15T05:38:40.385Z,2.25
2023-01-15T05:40:41.906Z,2.50
2023-01-15T05:42:43.381Z,2.38
2023-01-15T05:44:44.921Z,2.90
2023-01-15T05:46:47.741Z,3.67
2023-01-15T05:48:49.658Z,3.00
2023-01-15T05:50:51.149Z,2.35
2023-01-15T05:52:52.660Z,2.17
2023-01-15T05:54:54.168Z,2.75
2023-01-15T05:56:55.744Z,2.28
2023-01-15T05:58:57.403Z,3.70
2023-01-15T06:00:59.035Z,3.53
2023-01-15T06:03:00.686Z,2.72
2023-01-15T06:05:02.476Z,2.40
2023-01-15T06:07:04.357Z,3.10
2023-01-15T06:09:06.507Z,2.97
2023-01-15T06:11:08.268Z,2.92
2023-01-15T06:13:09.784Z,2.67
2023-01-15T06:15:12.289Z,2.63
2023-01-15T06:17:15.098Z,2.55
2023-01-15T06:19:16.911Z,2.80
2023-01-15T06:21:18.901Z,2.40
2023-01-15T06:23:20.713Z,2.90
2023-01-15T06:25:22.295Z,2.67
2023-01-15T06:27:23.783Z,2.95
2023-01-15T06:29:25.378Z,2.75
2023-01-15T06:31:27.173Z,2.10
2023-01-15T06:33:28.814Z,2.42
2023-01-15T06:35:30.371Z,4.55
2023-01-15T06:37:31.936Z,5.63
2023-01-15T06:39:33.476Z,4.50
2023-01-15T06:41:53.540Z,2.80
2023-01-15T06:44:13.473Z,3.60
2023-01-15T06:46:35.352Z,3.88
2023-01-15T06:48:36.881Z,3.70
2023-01-15T06:50:38.483Z,2.90
2023-01-15T06:52:40.094Z,2.70
2023-01-15T06:54:41.751Z,12.27
2023-01-15T06:56:43.264Z,4.90
2023-01-15T06:58:44.813Z,3.78
2023-01-15T07:00:53.668Z,3.00
2023-01-15T07:02:55.207Z,3.45
2023-01-15T07:04:56.761Z,3.50
2023-01-15T07:06:58.353Z,4.75
2023-01-15T07:09:00.227Z,3.38
2023-01-15T07:11:03.713Z,3.83
2023-01-15T07:13:05.215Z,3.35
2023-01-15T07:15:07.215Z,3.60
2023-01-15T07:17:09.408Z,4.13
2023-01-15T07:19:11.315Z,3.90
2023-01-15T07:21:12.868Z,3.97
2023-01-15T07:23:16.668Z,2.60
2023-01-15T07:25:19.086Z,3.42
2023-01-15T07:27:20.623Z,3.70
2023-01-15T07:29:23.400Z,3.75
2023-01-15T07:31:25.068Z,4.97
2023-01-15T07:33:26.619Z,3.90
2023-01-15T07:35:28.219Z,3.17
2023-01-15T07:37:29.801Z,3.15
2023-01-15T07:39:31.838Z,3.15
2023-01-15T07:41:52.497Z,3.13
2023-01-15T07:44:12.664Z,2.97
2023-01-15T07:46:46.433Z,3.47
2023-01-15T07:49:06.234Z,3.08
2023-01-15T07:53:09.115Z,3.28
2023-01-15T07:55:13.304Z,2.72
2023-01-15T07:57:18.166Z,3.78
2023-01-15T07:59:20.292Z,3.17
2023-01-15T08:01:21.907Z,3.55
2023-01-15T08:03:23.519Z,3.72
2023-01-15T08:05:25.162Z,3.38
2023-01-15T08:07:26.938Z,4.20
2023-01-15T08:09:28.924Z,4.75
2023-01-15T08:11:49.522Z,4.20
2023-01-15T08:14:09.449Z,4.32
2023-01-15T08:16:11.423Z,7.88
2023-01-15T08:18:12.984Z,8.68
2023-01-15T08:20:17.283Z,4.05
2023-01-15T08:22:18.846Z,3.95
2023-01-15T08:24:20.499Z,4.60
2023-01-15T08:26:22.142Z,4.03
2023-01-15T08:28:23.697Z,4.45
2023-01-15T08:30:25.687Z,3.20
2023-01-15T08:32:27.245Z,3.58
2023-01-15T08:34:28.828Z,4.07
2023-01-15T08:36:30.364Z,3.65
2023-01-15T08:38:31.930Z,3.95
2023-01-15T08:40:36.293Z,2.80
2023-01-15T08:42:38.572Z,3.65
2023-01-15T08:44:40.105Z,5.00
2023-01-15T08:46:41.704Z,4.93
2023-01-15T08:48:43.269Z,4.15
2023-01-15T08:50:45.481Z,3.50
2023-01-15T08:52:47.123Z,2.80
2023-01-15T08:54:48.658Z,2.55
2023-01-15T08:56:50.593Z,3.45
2023-01-15T08:58:52.141Z,4.60
2023-01-15T09:00:53.743Z,3.20
2023-01-15T09:02:55.395Z,4.00
2023-01-15T09:04:57.071Z,3.25
2023-01-15T09:06:58.721Z,2.97
2023-01-15T09:09:00.561Z,3.20
2023-01-15T09:11:04.154Z,3.33
2023-01-15T09:13:05.731Z,3.08
2023-01-15T09:15:07.699Z,3.30
2023-01-15T09:17:09.412Z,3.10
2023-01-15T09:19:11.206Z,2.90
2023-01-15T09:21:12.734Z,2.90
2023-01-15T09:23:15.104Z,2.78
2023-01-15T09:25:19.519Z,3.00
2023-01-15T09:27:21.172Z,2.72
2023-01-15T09:29:22.804Z,2.92
2023-01-15T09:31:24.560Z,3.28
2023-01-15T09:33:26.089Z,3.08
2023-01-15T09:35:27.591Z,3.15
2023-01-15T09:37:29.444Z,3.28
2023-01-15T09:39:31.628Z,3.35
2023-01-15T09:42:08.488Z,3.33
2023-01-15T09:44:28.449Z,3.70
2023-01-15T09:48:45.664Z,3.03
2023-01-15T09:51:32.231Z,3.10
2023-01-15T09:53:44.478Z,3.20
2023-01-15T09:55:48.784Z,3.28
2023-01-15T09:57:54.612Z,3.42
2023-01-15T10:00:05.367Z,3.38
2023-01-15T10:02:17.660Z,4.10
2023-01-15T10:04:38.068Z,3.10
2023-01-15T10:06:48.545Z,3.47
2023-01-15T10:08:51.308Z,2.80
2023-01-15T10:11:02.843Z,3.00
2023-01-15T10:13:14.765Z,2.83
2023-01-15T10:15:30.277Z,4.75
2023-01-15T10:17:41.488Z,3.25
2023-01-15T10:19:44.867Z,3.28
2023-01-15T10:21:55.521Z,3.28
2023-01-15T10:24:02.944Z,3.65
2023-01-15T10:26:16.630Z,4.43
2023-01-15T10:28:28.368Z,5.65
2023-01-15T10:30:43.352Z,6.50
2023-01-15T10:33:02.111Z,3.00
2023-01-15T10:35:32.372Z,3.33
2023-01-15T10:37:42.120Z,2.72
2023-01-15T10:40:01.425Z,4.07
2023-01-15T10:42:41.229Z,5.75
2023-01-15T10:45:21.132Z,4.75
2023-01-15T10:49:34.509Z,2.92
2023-01-15T10:52:06.531Z,4.25
2023-01-15T10:54:12.771Z,4.65
2023-01-15T10:56:33.020Z,3.15
2023-01-15T10:58:39.513Z,3.80
2023-01-15T11:00:46.695Z,4.00
2023-01-15T11:03:11.890Z,4.80
2023-01-15T11:05:22.499Z,6.05
2023-01-15T11:07:54.122Z,5.82
2023-01-15T11:10:05.140Z,13.25
2023-01-15T11:12:23.150Z,13.80
2023-01-15T11:14:57.299Z,10.50
2023-01-15T11:17:08.118Z,3.60
2023-01-15T11:19:37.342Z,4.70
2023-01-15T11:21:42.408Z,4.00
2023-01-15T11:23:44.352Z,4.68
2023-01-15T11:26:06.172Z,7.78
2023-01-15T11:28:09.902Z,5.55
2023-01-15T11:30:34.579Z,4.07
2023-01-15T11:32:37.882Z,3.58
2023-01-15T11:34:40.336Z,4.13
2023-01-15T11:36:42.395Z,8.90
2023-01-15T11:38:49.951Z,3.45
2023-01-15T11:40:54.034Z,6.60
2023-01-15T11:43:13.851Z,4.68
2023-01-15T11:47:55.522Z,3.58
2023-01-15T11:50:28.729Z,3.40
2023-01-15T11:52:40.123Z,3.15
2023-01-15T11:55:04.319Z,4.85
2023-01-15T11:57:12.175Z,3.65
2023-01-15T11:59:36.538Z,3.00
2023-01-15T12:01:54.645Z,3.92
2023-01-15T12:03:57.788Z,3.80
2023-01-15T12:06:11.739Z,3.30
2023-01-15T12:08:44.286Z,4.18
2023-01-15T12:11:21.046Z,8.50
2023-01-15T12:13:36.159Z,3.83
2023-01-15T12:15:51.447Z,2.97
2023-01-15T12:18:00.180Z,5.82
2023-01-15T12:20:26.893Z,5.38
2023-01-15T12:22:43.739Z,3.67
2023-01-15T12:25:21.829Z,3.67
2023-01-15T12:27:44.304Z,4.85
2023-01-15T12:29:52.079Z,3.63
2023-01-15T12:32:05.177Z,4.18
2023-01-15T12:34:36.941Z,4.93
2023-01-15T12:39:03.480Z,3.90
2023-01-15T12:41:11.909Z,4.85
2023-01-15T12:43:44.763Z,4.63
2023-01-15T12:45:49.897Z,5.30
2023-01-15T12:48:12.848Z,4.13
2023-01-15T12:50:32.515Z,6.05
2023-01-15T12:52:40.529Z,6.18
2023-01-15T12:54:53.163Z,7.32
2023-01-15T12:57:03.551Z,7.45
2023-01-15T12:59:21.511Z,5.07
2023-01-15T13:01:54.235Z,7.35
2023-01-15T13:04:04.796Z,5.28
2023-01-15T13:06:09.321Z,6.05
2023-01-15T13:08:19.308Z,5.57
2023-01-15T13:10:34.650Z,5.35
2023-01-15T13:12:37.060Z,5.72
2023-01-15T13:14:38.773Z,3.28
2023-01-15T13:16:48.451Z,5.40
2023-01-15T13:18:52.904Z,4.90
2023-01-15T13:20:55.923Z,5.25
2023-01-15T13:23:08.569Z,5.63
2023-01-15T13:25:26.787Z,6.50
2023-01-15T13:27:42.442Z,11.05
2023-01-15T13:30:05.560Z,10.20
2023-01-15T13:32:20.071Z,7.30
2023-01-15T13:34:35.341Z,7.55
2023-01-15T13:36:45.549Z,5.75
2023-01-15T13:38:51.013Z,5.75
2023-01-15T13:40:56.616Z,6.40
2023-01-15T13:43:05.224Z,5.68
2023-01-15T13:45:18.984Z,5.63
2023-01-15T13:47:38.648Z,5.65
2023-01-15T13:49:56.238Z,7.60
2023-01-15T13:52:08.844Z,10.30
2023-01-15T13:54:28.613Z,12.00
2023-01-15T13:58:51.413Z,14.73
2023-01-15T14:01:09.122Z,7.03
2023-01-15T14:03:29.237Z,7.30
2023-01-15T14:05:33.700Z,6.65
2023-01-15T14:07:37.360Z,11.10
2023-01-15T14:09:38.954Z,9.30
2023-01-15T14:11:49.396Z,13.25
2023-01-15T14:14:36.981Z,14.80
2023-01-15T14:16:59.906Z,16.55
2023-01-15T14:19:08.997Z,17.15
2023-01-15T14:21:18.296Z,12.43
2023-01-15T14:23:28.945Z,14.20
2023-01-15T14:25:41.454Z,12.32
2023-01-15T14:27:56.637Z,19.17
2023-01-15T14:30:22.187Z,16.60
2023-01-15T14:32:44.578Z,10.38
2023-01-15T14:34:55.324Z,9.00
2023-01-15T14:37:15.360Z,9.55
2023-01-15T14:39:48.984Z,10.80
2023-01-15T14:42:16.411Z,27.92
2023-01-15T14:44:27.703Z,14.82
2023-01-15T14:46:37.768Z,10.55
2023-01-15T14:48:39.944Z,9.00
2023-01-15T14:50:44.057Z,9.02
2023-01-15T14:52:46.869Z,7.97
2023-01-15T14:54:48.901Z,11.10
2023-01-15T14:56:57.913Z,13.60
2023-01-15T14:59:16.436Z,18.65
2023-01-15T15:01:21.173Z,35.30
2023-01-15T15:03:34.984Z,29.02
2023-01-15T15:05:36.710Z,16.90
2023-01-15T15:07:48.394Z,10.25
2023-01-15T15:10:06.468Z,13.20
2023-01-15T15:12:26.731Z,10.10
2023-01-15T15:14:30.053Z,10.40
2023-01-15T15:16:35.859Z,11.13
2023-01-15T15:18:58.593Z,9.88
2023-01-15T15:21:08.299Z,9.45
2023-01-15T15:23:32.885Z,10.13
2023-01-15T15:25:39.614Z,9.52
2023-01-15T15:27:41.379Z,7.93
2023-01-15T15:29:43.121Z,7.50
2023-01-15T15:32:00.248Z,9.15
2023-01-15T15:34:02.172Z,9.93
2023-01-15T15:36:04.504Z,10.30
2023-01-15T15:38:06.834Z,9.68
2023-01-15T15:40:17.509Z,15.90
2023-01-15T15:42:57.025Z,13.65
2023-01-15T15:45:19.090Z,13.35
2023-01-15T15:47:41.571Z,8.43
2023-01-15T15:49:43.156Z,9.38
2023-01-15T15:51:52.955Z,11.23
2023-01-15T15:56:13.780Z,9.50
2023-01-15T15:58:24.885Z,9.70
2023-01-15T16:00:43.733Z,13.13
2023-01-15T16:02:45.406Z,9.75
2023-01-15T16:04:58.889Z,12.15
2023-01-15T16:07:00.463Z,17.73
2023-01-15T16:09:04.870Z,21.75
2023-01-15T16:11:10.534Z,15.90
2023-01-15T16:13:22.732Z,18.40
2023-01-15T16:15:29.474Z,24.15
2023-01-15T16:17:32.205Z,30.58
2023-01-15T16:19:33.894Z,25.05
2023-01-15T16:21:37.059Z,20.10
2023-01-15T16:23:38.679Z,20.88
2023-01-15T16:25:41.944Z,10.63
2023-01-15T16:27:43.514Z,11.82
2023-01-15T16:29:51.457Z,31.45
2023-01-15T16:31:56.028Z,12.50
2023-01-15T16:33:58.911Z,14.98
2023-01-15T16:36:04.894Z,18.13
2023-01-15T16:38:07.548Z,18.90
2023-01-15T16:40:21.497Z,14.65
2023-01-15T16:42:44.565Z,17.92
2023-01-15T16:44:54.042Z,15.68
2023-01-15T16:46:59.327Z,11.65
2023-01-15T16:49:25.538Z,19.35
2023-01-15T16:51:27.175Z,12.70
2023-01-15T16:53:38.045Z,17.58
2023-01-15T16:55:41.021Z,17.80
2023-01-15T16:57:42.634Z,16.63
2023-01-15T16:59:44.108Z,13.68
2023-01-15T17:01:48.026Z,20.70
2023-01-15T17:03:49.594Z,20.30
2023-01-15T17:05:56.879Z,28.15
2023-01-15T17:07:58.544Z,19.67
2023-01-15T17:10:01.789Z,18.15
2023-01-15T17:12:26.112Z,24.77
2023-01-15T17:14:29.896Z,62.28
2023-01-15T17:16:31.499Z,34.10
2023-01-15T17:18:33.520Z,32.97
2023-01-15T17:20:36.140Z,27.95
2023-01-15T17:22:37.827Z,28.08
2023-01-15T17:24:47.503Z,27.25
2023-01-15T17:26:49.049Z,30.27
2023-01-15T17:28:50.850Z,33.55
2023-01-15T17:30:57.473Z,33.13
2023-01-15T17:33:04.633Z,11.70
2023-01-15T17:35:07.205Z,77.28
2023-01-15T17:37:08.805Z,17.65
2023-01-15T17:39:13.213Z,16.92
2023-01-15T17:41:16.410Z,17.83
2023-01-15T17:43:18.098Z,17.30
2023-01-15T17:45:25.667Z,17.80
2023-01-15T17:47:27.136Z,10.73
2023-01-15T17:49:28.718Z,17.75
2023-01-15T17:51:30.554Z,41.38
2023-01-15T17:53:32.639Z,22.15
2023-01-15T17:55:52.686Z,23.75
2023-01-15T17:58:12.585Z,19.02
2023-01-15T18:00:33.439Z,27.95
2023-01-15T18:02:54.363Z,34.83
2023-01-15T18:05:14.234Z,25.42
2023-01-15T18:07:21.524Z,18.45
2023-01-15T18:09:23.942Z,14.10
2023-01-15T18:11:25.559Z,14.70
2023-01-15T18:13:27.224Z,16.60
2023-01-15T18:15:29.568Z,20.58
2023-01-15T18:17:31.824Z,42.17
2023-01-15T18:19:33.518Z,12.45
2023-01-15T18:21:38.510Z,29.17
2023-01-15T18:23:40.227Z,24.50
2023-01-15T18:25:46.164Z,71.22
2023-01-15T18:27:47.970Z,41.17
2023-01-15T18:29:49.663Z,56.03
2023-01-15T18:31:51.201Z,24.60
2023-01-15T18:33:52.937Z,12.20
2023-01-15T18:36:10.673Z,27.50
2023-01-15T18:38:12.374Z,22.63
2023-01-15T18:40:14.382Z,20.48
2023-01-15T18:42:15.894Z,22.45
2023-01-15T18:44:38.986Z,15.65
2023-01-15T18:46:47.368Z,21.23
2023-01-15T18:48:48.921Z,12.07
2023-01-15T18:50:50.461Z,33.53
2023-01-15T18:52:52.044Z,11.05
2023-01-15T18:54:54.704Z,11.77
2023-01-15T18:56:56.198Z,10.07
2023-01-15T18:58:57.880Z,14.02
2023-01-15T19:01:07.156Z,14.98
2023-01-15T19:03:08.782Z,10.30
2023-01-15T19:05:13.144Z,18.70
2023-01-15T19:07:15.456Z,8.07
2023-01-15T19:09:18.054Z,7.80
2023-01-15T19:11:19.659Z,8.77
2023-01-15T19:13:21.167Z,11.40
2023-01-15T19:15:41.623Z,16.52
2023-01-15T19:18:01.737Z,34.78
2023-01-15T19:20:04.337Z,17.90
2023-01-15T19:22:24.963Z,10.95
2023-01-15T19:24:30.520Z,24.08
2023-01-15T19:26:32.221Z,18.48
2023-01-15T19:28:33.822Z,18.70
2023-01-15T19:30:38.265Z,24.67
2023-01-15T19:32:39.761Z,33.15
2023-01-15T19:34:41.279Z,23.35
2023-01-15T19:36:42.997Z,25.52
2023-01-15T19:38:44.605Z,25.75
2023-01-15T19:40:46.119Z,19.52
2023-01-15T19:43:06.706Z,22.25
2023-01-15T19:45:29.430Z,20.88
2023-01-15T19:47:55.983Z,38.30
2023-01-15T19:50:16.427Z,18.00
2023-01-15T19:52:36.305Z,17.38
2023-01-15T19:54:56.620Z,19.95
2023-01-15T19:56:58.215Z,15.80
2023-01-15T19:58:59.734Z,15.48
2023-01-15T20:01:02.006Z,19.20
2023-01-15T20:03:04.246Z,12.35
2023-01-15T20:05:07.508Z,13.95
2023-01-15T20:07:09.836Z,15.38
2023-01-15T20:09:11.554Z,39.72
2023-01-15T20:11:13.314Z,13.75
2023-01-15T20:13:39.598Z,13.13
2023-01-15T20:15:44.026Z,18.42
2023-01-15T20:17:45.837Z,13.32
2023-01-15T20:19:47.606Z,13.35
2023-01-15T20:21:49.327Z,13.32
2023-01-15T20:23:50.880Z,13.68
2023-01-15T20:25:53.629Z,20.55
2023-01-15T20:27:56.205Z,12.82
2023-01-15T20:29:58.244Z,15.15
2023-01-15T20:31:59.956Z,14.07
2023-01-15T20:34:02.058Z,12.65
2023-01-15T20:36:04.478Z,12.80
2023-01-15T20:38:07.193Z,12.00
2023-01-15T20:40:09.777Z,28.73
2023-01-15T20:42:30.164Z,38.35
2023-01-15T20:44:50.085Z,13.60
2023-01-15T20:46:51.867Z,10.45
2023-01-15T20:49:11.752Z,12.15
2023-01-15T20:51:13.713Z,10.95
2023-01-15T20:53:15.209Z,10.85
2023-01-15T20:55:17.858Z,12.40
2023-01-15T20:57:19.431Z,11.95
2023-01-15T20:59:20.981Z,10.25
2023-01-15T21:01:22.649Z,8.15
2023-01-15T21:03:24.280Z,9.55
2023-01-15T21:05:26.513Z,11.40
2023-01-15T21:07:28.043Z,11.77
2023-01-15T21:09:29.846Z,11.05
2023-01-15T21:11:31.527Z,11.45
2023-01-15T21:13:33.129Z,7.93
2023-01-15T21:15:34.722Z,14.80
2023-01-15T21:17:38.523Z,8.95
2023-01-15T21:19:40.068Z,20.38
2023-01-15T21:21:41.584Z,14.68
2023-01-15T21:23:45.605Z,11.80
2023-01-15T21:25:47.255Z,17.55
2023-01-15T21:27:48.797Z,22.95
2023-01-15T21:29:50.744Z,23.67
2023-01-15T21:31:53.910Z,19.70
2023-01-15T21:33:56.331Z,19.50
2023-01-15T21:35:57.903Z,21.42
2023-01-15T21:37:59.455Z,17.73
2023-01-15T21:40:00.977Z,16.58
2023-01-15T21:42:21.091Z,16.50
2023-01-15T21:44:37.975Z,15.77
2023-01-15T21:46:39.603Z,16.30
2023-01-15T21:48:41.157Z,17.90
2023-01-15T21:50:42.694Z,21.45
2023-01-15T21:52:44.210Z,20.70
2023-01-15T21:54:46.677Z,22.40
2023-01-15T21:56:48.181Z,19.30
2023-01-15T21:58:49.703Z,20.33
2023-01-15T22:00:51.346Z,20.50
2023-01-15T22:02:55.711Z,22.88
2023-01-15T22:04:57.285Z,21.23
2023-01-15T22:06:58.889Z,22.17
2023-01-15T22:09:00.418Z,21.27
2023-01-15T22:11:03.884Z,22.77
2023-01-15T22:13:05.549Z,22.50
2023-01-15T22:15:07.508Z,21.70
2023-01-15T22:17:10.886Z,22.25
2023-01-15T22:19:20.034Z,20.83
2023-01-15T22:21:21.583Z,21.70
2023-01-15T22:23:23.205Z,20.90
2023-01-15T22:25:24.811Z,18.27
2023-01-15T22:27:28.056Z,23.63
2023-01-15T22:29:32.152Z,21.60
2023-01-15T22:31:33.685Z,17.92
2023-01-15T22:33:35.211Z,19.85
2023-01-15T22:35:36.735Z,20.48
2023-01-15T22:37:38.253Z,19.95
2023-01-15T22:39:39.782Z,18.27
2023-01-15T22:42:10.631Z,17.52
2023-01-15T22:44:12.229Z,17.83
2023-01-15T22:46:14.517Z,17.58
2023-01-15T22:48:16.062Z,16.67
2023-01-15T22:50:17.811Z,17.67
2023-01-15T22:52:20.841Z,24.00
2023-01-15T22:54:23.022Z,18.60
2023-01-15T22:56:25.376Z,16.63
2023-01-15T22:58:26.977Z,15.57
2023-01-15T23:00:28.522Z,15.18
2023-01-15T23:02:48.616Z,15.45
2023-01-15T23:04:50.181Z,14.93
2023-01-15T23:06:53.127Z,14.95
2023-01-15T23:08:58.328Z,14.48
2023-01-15T23:10:59.830Z,17.98
2023-01-15T23:13:01.369Z,18.67
2023-01-15T23:15:03.045Z,26.67
2023-01-15T23:17:04.829Z,27.45
2023-01-15T23:19:06.502Z,25.67
2023-01-15T23:21:13.801Z,28.00
2023-01-15T23:23:15.359Z,19.42
2023-01-15T23:25:17.003Z,18.33
2023-01-15T23:27:18.510Z,16.40
2023-01-15T23:29:20.097Z,15.07
2023-01-15T23:31:22.188Z,15.85
2023-01-15T23:33:24.463Z,16.20
2023-01-15T23:35:26.099Z,16.45
2023-01-15T23:37:27.601Z,16.60
2023-01-15T23:39:29.294Z,16.48
2023-01-15T23:41:49.245Z,17.02
2023-01-15T23:44:09.234Z,18.98
2023-01-15T23:46:33.420Z,20.95
2023-01-15T23:48:35.003Z,21.05
2023-01-15T23:50:36.559Z,17.75
2023-01-15T23:52:38.077Z,17.45
2023-01-15T23:54:39.633Z,18.83
2023-01-15T23:56:41.134Z,18.63
2023-01-15T23:58:42.693Z,18.77
